Ituzaingo, Argentina
Current Conditions -  °F | °C
As of 9:00 PM on Tuesday 21 Oct 2014 (Local Time) from SARP Reporting Station
Clear Clear  
Wind Chill: 24°   Ceiling: Unl
Heat Index: 24°   Visibility: 6mi
Dew Point: 10°   Wind: 5mph
Humidity: 41%   Direction: 160°SSE
Pressure: 30.06"   Gusts: NA
Location:  27.6°S, 56.68°W
Report Text: SARP 220000Z 16004KT CAVOK 24/10 Q1018
Loading
Personal Weather Stations






























Interactive Weather Map
Tropical Storm Tracking
New forecast layout! Learn more

10-Day Weather Forecast

Advertisements
Track Severe Weather on mobile